createdAt,value
2023-02-26T00:01:12.606Z,99.90
2023-02-26T00:03:39.316Z,99.90
2023-02-26T00:06:06.823Z,99.90
2023-02-26T00:08:33.653Z,99.90
2023-02-26T00:11:03.296Z,99.90
2023-02-26T00:13:30.457Z,99.90
2023-02-26T00:15:59.032Z,99.90
2023-02-26T00:18:25.899Z,99.90
2023-02-26T00:20:52.787Z,99.90
2023-02-26T00:23:19.614Z,99.90
2023-02-26T00:25:46.678Z,99.90
2023-02-26T00:28:13.849Z,99.90
2023-02-26T00:30:40.778Z,99.90
2023-02-26T00:33:07.702Z,99.90
2023-02-26T00:35:34.530Z,99.90
2023-02-26T00:38:06.032Z,99.90
2023-02-26T00:40:43.024Z,99.90
2023-02-26T00:43:14.018Z,99.90
2023-02-26T00:45:44.189Z,99.90
2023-02-26T00:48:17.131Z,99.90
2023-02-26T00:50:48.937Z,99.90
2023-02-26T00:53:15.593Z,99.90
2023-02-26T00:55:42.296Z,99.90
2023-02-26T00:58:08.971Z,99.90
2023-02-26T01:00:35.793Z,99.90
2023-02-26T01:03:03.695Z,99.90
2023-02-26T01:05:30.668Z,99.90
2023-02-26T01:08:15.861Z,99.90
2023-02-26T01:10:42.701Z,99.90
2023-02-26T01:13:09.471Z,99.90
2023-02-26T01:15:36.423Z,99.90
2023-02-26T01:18:06.566Z,99.90
2023-02-26T01:20:45.300Z,99.90
2023-02-26T01:23:16.586Z,99.90
2023-02-26T01:25:51.474Z,99.90
2023-02-26T01:28:18.361Z,99.90
2023-02-26T01:30:46.253Z,99.90
2023-02-26T01:33:26.172Z,99.90
2023-02-26T01:35:58.711Z,99.90
2023-02-26T01:38:35.080Z,99.90
2023-02-26T01:41:01.734Z,99.90
2023-02-26T01:43:37.459Z,99.90
2023-02-26T01:46:06.274Z,99.90
2023-02-26T01:48:36.994Z,99.90
2023-02-26T01:51:04.152Z,99.90
2023-02-26T01:53:30.889Z,99.90
2023-02-26T01:55:59.001Z,99.90
2023-02-26T01:58:27.946Z,99.90
2023-02-26T02:00:54.722Z,99.90
2023-02-26T02:03:22.310Z,99.90
2023-02-26T02:05:55.099Z,99.90
2023-02-26T02:08:22.125Z,99.90
2023-02-26T02:10:50.283Z,99.90
2023-02-26T02:13:16.900Z,99.90
2023-02-26T02:15:51.576Z,99.90
2023-02-26T02:18:20.758Z,99.90
2023-02-26T02:20:47.402Z,99.90
2023-02-26T02:23:17.617Z,99.90
2023-02-26T02:25:44.337Z,99.90
2023-02-26T02:28:20.006Z,99.90
2023-02-26T02:31:02.453Z,99.90
2023-02-26T02:33:32.987Z,99.90
2023-02-26T02:36:04.662Z,99.90
2023-02-26T02:38:34.003Z,99.90
2023-02-26T02:41:12.643Z,99.90
2023-02-26T02:43:41.323Z,99.90
2023-02-26T02:46:34.446Z,99.90
2023-02-26T02:49:10.006Z,99.90
2023-02-26T02:51:44.040Z,99.90
2023-02-26T02:54:16.199Z,99.90
2023-02-26T02:56:59.843Z,99.90
2023-02-26T02:59:33.300Z,99.90
2023-02-26T03:02:04.861Z,99.90
2023-02-26T03:04:31.720Z,99.90
2023-02-26T03:06:58.478Z,99.90
2023-02-26T03:09:25.154Z,99.90
2023-02-26T03:11:51.876Z,99.90
2023-02-26T03:14:18.647Z,99.90
2023-02-26T03:17:00.540Z,99.90
2023-02-26T03:19:34.323Z,99.90
2023-02-26T03:22:17.566Z,99.90
2023-02-26T03:24:48.642Z,99.90
2023-02-26T03:27:25.280Z,99.90
2023-02-26T03:29:53.208Z,99.90
2023-02-26T03:32:23.981Z,99.90
2023-02-26T03:34:59.660Z,99.90
2023-02-26T03:37:49.675Z,99.90
2023-02-26T03:40:18.810Z,99.90
2023-02-26T03:42:52.505Z,99.90
2023-02-26T03:45:22.071Z,99.90
2023-02-26T03:47:50.581Z,99.90
2023-02-26T03:50:37.310Z,99.90
2023-02-26T03:53:06.275Z,99.90
2023-02-26T03:55:38.983Z,99.90
2023-02-26T03:58:05.726Z,99.90
2023-02-26T04:00:33.969Z,99.90
2023-02-26T04:03:04.677Z,99.90
2023-02-26T04:05:43.289Z,99.90
2023-02-26T04:08:09.976Z,99.90
2023-02-26T04:10:40.157Z,99.90
2023-02-26T04:13:07.263Z,99.90
2023-02-26T04:15:33.930Z,99.90
2023-02-26T04:18:00.589Z,99.90
2023-02-26T04:20:27.313Z,99.90
2023-02-26T04:22:53.984Z,99.90
2023-02-26T04:25:20.799Z,99.90
2023-02-26T04:27:47.491Z,99.90
2023-02-26T04:30:14.280Z,99.90
2023-02-26T04:32:40.943Z,99.90
2023-02-26T04:35:07.761Z,99.90
2023-02-26T04:37:34.467Z,99.90
2023-02-26T04:40:01.132Z,99.90
2023-02-26T04:42:27.784Z,99.90
2023-02-26T04:44:54.530Z,99.90
2023-02-26T04:47:21.226Z,99.90
2023-02-26T04:49:47.903Z,99.90
2023-02-26T04:52:14.603Z,99.90
2023-02-26T04:54:41.378Z,99.90
2023-02-26T04:57:08.083Z,99.90
2023-02-26T04:59:34.752Z,99.90
2023-02-26T05:02:01.648Z,99.90
2023-02-26T05:04:28.431Z,99.90
2023-02-26T05:06:55.898Z,99.90
2023-02-26T05:09:22.703Z,99.90
2023-02-26T05:11:49.481Z,99.90
2023-02-26T05:14:16.909Z,99.90
2023-02-26T05:16:43.687Z,99.90
2023-02-26T05:19:10.332Z,99.90
2023-02-26T05:21:37.356Z,99.90
2023-02-26T05:24:04.216Z,99.90
2023-02-26T05:26:30.935Z,99.90
2023-02-26T05:28:58.144Z,99.90
2023-02-26T05:31:25.033Z,99.90
2023-02-26T05:33:51.771Z,99.90
2023-02-26T05:36:18.454Z,99.90
2023-02-26T05:38:45.125Z,99.90
2023-02-26T05:41:11.807Z,99.90
2023-02-26T05:43:39.582Z,99.90
2023-02-26T05:46:06.289Z,99.90
2023-02-26T05:48:33.056Z,99.90
2023-02-26T05:51:00.476Z,99.90
2023-02-26T05:53:27.249Z,99.90
2023-02-26T05:55:54.299Z,99.90
2023-02-26T05:58:21.146Z,99.90
2023-02-26T06:00:47.872Z,99.90
2023-02-26T06:03:14.640Z,99.90
2023-02-26T06:05:41.363Z,99.90
2023-02-26T06:08:08.049Z,99.90
2023-02-26T06:10:34.778Z,99.90
2023-02-26T06:13:01.596Z,99.90
2023-02-26T06:15:28.251Z,99.90
2023-02-26T06:17:54.934Z,99.90
2023-02-26T06:20:21.639Z,99.90
2023-02-26T06:22:48.300Z,99.90
2023-02-26T06:25:15.906Z,99.90
2023-02-26T06:27:42.678Z,99.90
2023-02-26T06:30:09.756Z,99.90
2023-02-26T06:32:36.503Z,99.90
2023-02-26T06:35:03.481Z,99.90
2023-02-26T06:37:30.161Z,99.90
2023-02-26T06:39:56.833Z,99.90
2023-02-26T06:42:23.575Z,99.90
2023-02-26T06:44:50.513Z,99.90
2023-02-26T06:47:17.205Z,99.90
2023-02-26T06:49:43.847Z,99.90
2023-02-26T06:52:10.512Z,99.90
2023-02-26T06:54:37.163Z,99.90
2023-02-26T06:57:03.929Z,99.90
2023-02-26T06:59:30.594Z,99.90
2023-02-26T07:01:57.727Z,99.90
2023-02-26T07:04:24.699Z,99.90
2023-02-26T07:06:51.389Z,99.90
2023-02-26T07:09:20.052Z,99.90
2023-02-26T07:11:46.851Z,99.90
2023-02-26T07:14:13.628Z,99.90
2023-02-26T07:16:40.361Z,99.90
2023-02-26T07:19:07.064Z,99.90
2023-02-26T07:21:33.714Z,99.90
2023-02-26T07:24:00.484Z,99.90
2023-02-26T07:26:27.557Z,99.90
2023-02-26T07:28:54.469Z,99.90
2023-02-26T07:31:21.371Z,99.90
2023-02-26T07:33:48.183Z,99.90
2023-02-26T07:36:14.873Z,99.90
2023-02-26T07:38:41.548Z,99.90
2023-02-26T07:41:09.201Z,99.90
2023-02-26T07:43:35.945Z,99.90
2023-02-26T07:46:02.893Z,99.90
2023-02-26T07:48:29.777Z,99.90
2023-02-26T07:50:56.497Z,99.90
2023-02-26T07:53:23.596Z,99.90
2023-02-26T07:55:50.427Z,99.90
2023-02-26T07:58:17.426Z,99.90
2023-02-26T08:00:44.259Z,99.90
2023-02-26T08:03:10.953Z,99.90
2023-02-26T08:05:41.455Z,99.90
2023-02-26T08:08:08.153Z,99.90
2023-02-26T08:10:42.252Z,99.90
2023-02-26T08:13:09.392Z,99.90
2023-02-26T08:15:36.116Z,99.90
2023-02-26T08:18:03.150Z,99.90
2023-02-26T08:20:29.915Z,99.90
2023-02-26T08:22:56.645Z,99.90
2023-02-26T08:25:23.327Z,99.90
2023-02-26T08:27:55.337Z,99.90
2023-02-26T08:30:22.027Z,99.90
2023-02-26T08:33:09.804Z,99.90
2023-02-26T08:35:36.477Z,99.90
2023-02-26T08:38:03.209Z,99.90
2023-02-26T08:40:29.903Z,99.90
2023-02-26T08:42:58.469Z,99.90
2023-02-26T08:45:26.760Z,99.90
2023-02-26T08:47:57.238Z,99.90
2023-02-26T08:50:25.208Z,99.90
2023-02-26T08:52:51.955Z,99.90
2023-02-26T08:55:18.634Z,99.90
2023-02-26T08:57:45.375Z,99.90
2023-02-26T09:00:12.283Z,99.90
2023-02-26T09:02:39.063Z,99.90
2023-02-26T09:05:06.046Z,99.90
2023-02-26T09:07:32.809Z,99.90
2023-02-26T09:09:59.921Z,99.90
2023-02-26T09:12:26.576Z,99.90
2023-02-26T09:14:53.296Z,99.90
2023-02-26T09:17:19.975Z,99.90
2023-02-26T09:19:46.620Z,99.90
2023-02-26T09:22:13.379Z,99.90
2023-02-26T09:24:40.102Z,99.90
2023-02-26T09:27:06.812Z,99.90
2023-02-26T09:29:33.548Z,99.90
2023-02-26T09:32:00.402Z,99.90
2023-02-26T09:34:27.169Z,99.90
2023-02-26T09:36:53.840Z,99.90
2023-02-26T09:39:20.525Z,99.90
2023-02-26T09:41:51.928Z,99.90
2023-02-26T09:44:18.593Z,99.90
2023-02-26T09:46:45.274Z,99.90
2023-02-26T09:49:19.256Z,99.90
2023-02-26T09:51:50.096Z,99.90
2023-02-26T09:54:28.929Z,99.90
2023-02-26T09:56:58.336Z,99.90
2023-02-26T09:59:25.981Z,99.90
2023-02-26T10:01:58.949Z,99.90
2023-02-26T10:05:04.340Z,95.20
2023-02-26T10:07:50.991Z,99.50
2023-02-26T10:10:22.986Z,97.00
2023-02-26T10:12:51.380Z,95.10
2023-02-26T10:15:29.929Z,96.10
2023-02-26T10:18:02.399Z,95.40
2023-02-26T10:20:32.201Z,97.70
2023-02-26T10:23:04.885Z,99.50
2023-02-26T10:25:39.354Z,98.60
2023-02-26T10:28:26.295Z,96.50
2023-02-26T10:30:58.513Z,93.40
2023-02-26T10:33:33.399Z,93.00
2023-02-26T10:36:04.483Z,92.70
2023-02-26T10:38:31.877Z,92.60
2023-02-26T10:41:01.959Z,95.40
2023-02-26T10:43:31.717Z,94.30
2023-02-26T10:46:08.547Z,97.80
2023-02-26T10:48:41.391Z,92.40
2023-02-26T10:51:19.492Z,92.10
2023-02-26T10:53:52.874Z,93.80
2023-02-26T10:56:27.546Z,95.40
2023-02-26T10:58:55.050Z,94.80
2023-02-26T11:01:23.755Z,91.80
2023-02-26T11:03:54.897Z,93.00
2023-02-26T11:06:24.094Z,95.90
2023-02-26T11:08:54.834Z,98.30
2023-02-26T11:11:36.924Z,94.10
2023-02-26T11:14:03.657Z,92.50
2023-02-26T11:16:30.435Z,91.20
2023-02-26T11:18:59.383Z,91.80
2023-02-26T11:21:30.968Z,92.10
2023-02-26T11:24:08.805Z,92.10
2023-02-26T11:26:37.137Z,91.50
2023-02-26T11:29:04.526Z,92.90
2023-02-26T11:31:32.500Z,94.30
2023-02-26T11:34:02.499Z,91.70
2023-02-26T11:36:30.769Z,93.80
2023-02-26T11:39:17.917Z,94.10
2023-02-26T11:41:46.859Z,92.30
2023-02-26T11:44:42.984Z,91.40
2023-02-26T11:47:21.194Z,94.20
2023-02-26T11:49:52.572Z,96.20
2023-02-26T11:52:31.441Z,96.90
2023-02-26T11:55:06.165Z,97.10
2023-02-26T11:57:33.522Z,95.90
2023-02-26T12:00:00.982Z,91.50
2023-02-26T12:02:35.150Z,91.40
2023-02-26T12:05:03.901Z,95.70
2023-02-26T12:07:30.550Z,96.90
2023-02-26T12:09:57.325Z,94.00
2023-02-26T12:12:24.631Z,96.50
2023-02-26T12:15:14.412Z,97.50
2023-02-26T12:17:44.136Z,97.50
2023-02-26T12:20:23.529Z,96.70
2023-02-26T12:22:56.333Z,96.10
2023-02-26T12:25:23.101Z,96.30
2023-02-26T12:28:04.962Z,96.60
2023-02-26T12:30:34.779Z,96.60
2023-02-26T12:33:10.713Z,96.60
2023-02-26T12:35:41.557Z,98.10
2023-02-26T12:38:09.692Z,99.00
2023-02-26T12:40:45.552Z,97.90
2023-02-26T12:43:21.527Z,99.30
2023-02-26T12:45:51.343Z,99.80
2023-02-26T12:48:30.238Z,99.60
2023-02-26T12:51:03.084Z,99.90
2023-02-26T12:53:38.883Z,99.90
2023-02-26T12:56:24.378Z,99.40
2023-02-26T12:59:01.042Z,98.70
2023-02-26T13:01:33.704Z,98.50
2023-02-26T13:04:00.537Z,97.80
2023-02-26T13:06:42.530Z,97.50
2023-02-26T13:09:09.186Z,96.60
2023-02-26T13:11:38.845Z,96.30
2023-02-26T13:14:08.730Z,95.40
2023-02-26T13:16:35.448Z,96.40
2023-02-26T13:19:14.495Z,95.90
2023-02-26T13:21:44.650Z,96.20
2023-02-26T13:24:13.857Z,94.80
2023-02-26T13:26:42.179Z,93.70
2023-02-26T13:29:17.300Z,93.40
2023-02-26T13:32:04.304Z,92.00
2023-02-26T13:34:41.149Z,92.50
2023-02-26T13:37:14.697Z,90.90
2023-02-26T13:39:46.941Z,88.10
2023-02-26T13:42:25.088Z,88.20
2023-02-26T13:44:51.902Z,88.20
2023-02-26T13:47:21.753Z,89.70
2023-02-26T13:49:49.158Z,86.10
2023-02-26T13:52:26.581Z,84.90
2023-02-26T13:54:54.129Z,86.60
2023-02-26T13:57:20.783Z,86.30
2023-02-26T13:59:52.301Z,88.00
2023-02-26T14:02:19.082Z,90.00
2023-02-26T14:04:51.908Z,89.50
2023-02-26T14:07:38.541Z,86.20
2023-02-26T14:10:15.128Z,90.20
2023-02-26T14:12:44.607Z,86.20
2023-02-26T14:15:28.475Z,86.10
2023-02-26T14:18:03.013Z,86.10
2023-02-26T14:20:31.141Z,88.00
2023-02-26T14:23:10.953Z,88.60
2023-02-26T14:25:40.243Z,89.80
2023-02-26T14:28:25.343Z,90.00
2023-02-26T14:31:12.377Z,87.70
2023-02-26T14:33:59.786Z,84.80
2023-02-26T14:36:32.129Z,86.90
2023-02-26T14:39:00.648Z,83.80
2023-02-26T14:41:40.598Z,85.00
2023-02-26T14:44:16.042Z,82.70
2023-02-26T14:46:43.476Z,82.10
2023-02-26T14:49:15.913Z,83.10
2023-02-26T14:51:42.597Z,86.20
2023-02-26T14:54:17.592Z,82.40
2023-02-26T14:57:03.413Z,81.50
2023-02-26T14:59:42.428Z,81.90
2023-02-26T15:02:16.624Z,82.10
2023-02-26T15:04:49.380Z,83.30
2023-02-26T15:07:42.470Z,84.70
2023-02-26T15:10:21.334Z,85.40
2023-02-26T15:13:00.335Z,83.10
2023-02-26T15:15:31.514Z,83.70
2023-02-26T15:18:11.775Z,83.90
2023-02-26T15:20:50.588Z,82.90
2023-02-26T15:23:36.096Z,83.30
2023-02-26T15:26:03.729Z,82.80
2023-02-26T15:28:32.256Z,81.90
2023-02-26T15:31:00.170Z,84.50
2023-02-26T15:33:27.115Z,83.20
2023-02-26T15:35:55.218Z,84.50
2023-02-26T15:38:23.110Z,84.10
2023-02-26T15:40:51.353Z,81.80
2023-02-26T15:43:21.451Z,83.70
2023-02-26T15:45:48.970Z,83.50
2023-02-26T15:48:17.269Z,83.60
2023-02-26T15:50:45.308Z,82.00
2023-02-26T15:53:21.506Z,83.20
2023-02-26T15:55:53.234Z,84.30
2023-02-26T15:58:22.101Z,83.50
2023-02-26T16:00:53.997Z,83.20
2023-02-26T16:03:35.337Z,82.40
2023-02-26T16:06:02.596Z,85.20
2023-02-26T16:08:29.697Z,85.10
2023-02-26T16:10:57.452Z,84.70
2023-02-26T16:13:31.763Z,86.80
2023-02-26T16:15:59.915Z,83.40
2023-02-26T16:18:26.835Z,85.50
2023-02-26T16:20:57.755Z,84.20
2023-02-26T16:23:26.672Z,83.90
2023-02-26T16:25:55.550Z,87.20
2023-02-26T16:28:23.907Z,86.30
2023-02-26T16:30:54.245Z,87.80
2023-02-26T16:33:22.102Z,86.50
2023-02-26T16:35:49.965Z,86.10
2023-02-26T16:38:18.973Z,87.30
2023-02-26T16:44:27.316Z,88.30
2023-02-26T16:47:35.264Z,91.50
2023-02-26T16:50:02.097Z,91.00
2023-02-26T16:53:05.789Z,90.20
2023-02-26T16:55:34.215Z,89.70
2023-02-26T16:58:07.080Z,90.60
2023-02-26T17:00:34.423Z,91.10
2023-02-26T17:03:09.092Z,92.10
2023-02-26T17:05:36.851Z,93.60
2023-02-26T17:08:15.437Z,94.30
2023-02-26T17:10:48.086Z,92.20
2023-02-26T17:13:19.089Z,93.80
2023-02-26T17:15:47.037Z,94.50
2023-02-26T17:18:13.960Z,94.50
2023-02-26T17:20:40.932Z,94.70
2023-02-26T17:23:09.345Z,94.60
2023-02-26T17:25:37.912Z,95.30
2023-02-26T17:28:05.282Z,94.80
2023-02-26T17:30:33.545Z,92.40
2023-02-26T17:33:01.159Z,92.20
2023-02-26T17:35:29.268Z,94.30
2023-02-26T17:37:57.144Z,95.80
2023-02-26T17:40:28.688Z,91.90
2023-02-26T17:42:55.432Z,92.60
2023-02-26T17:45:22.155Z,95.10
2023-02-26T17:47:50.067Z,95.60
2023-02-26T17:50:34.835Z,95.70
2023-02-26T17:53:01.862Z,95.10
2023-02-26T17:55:28.559Z,96.30
2023-02-26T17:57:56.020Z,96.50
2023-02-26T18:00:23.413Z,96.10
2023-02-26T18:02:51.556Z,92.20
2023-02-26T18:05:19.527Z,93.20
2023-02-26T18:07:47.381Z,92.70
2023-02-26T18:10:23.210Z,91.70
2023-02-26T18:12:51.222Z,91.40
2023-02-26T18:15:17.896Z,92.50
2023-02-26T18:17:44.613Z,94.30
2023-02-26T18:20:16.220Z,92.80
2023-02-26T18:22:42.866Z,91.50
2023-02-26T18:25:11.969Z,90.90
2023-02-26T18:27:38.654Z,91.40
2023-02-26T18:30:05.919Z,92.80
2023-02-26T18:32:32.699Z,92.70
2023-02-26T18:34:59.378Z,92.50
2023-02-26T18:37:27.147Z,93.60
2023-02-26T18:39:53.833Z,94.70
2023-02-26T18:42:25.419Z,90.90
2023-02-26T18:44:53.132Z,93.10
2023-02-26T18:47:20.924Z,94.40
2023-02-26T18:49:48.242Z,92.90
2023-02-26T18:52:15.000Z,93.40
2023-02-26T18:54:42.099Z,94.80
2023-02-26T18:57:09.379Z,95.10
2023-02-26T18:59:36.210Z,95.60
2023-02-26T19:02:03.600Z,95.50
2023-02-26T19:04:30.760Z,95.10
2023-02-26T19:06:57.487Z,95.20
2023-02-26T19:09:24.191Z,96.00
2023-02-26T19:11:50.878Z,96.30
2023-02-26T19:14:18.357Z,96.70
2023-02-26T19:16:45.214Z,97.60
2023-02-26T19:19:12.848Z,98.30
2023-02-26T19:21:40.351Z,97.00
2023-02-26T19:24:08.516Z,96.90
2023-02-26T19:26:35.474Z,97.60
2023-02-26T19:29:02.608Z,97.60
2023-02-26T19:31:29.836Z,97.40
2023-02-26T19:33:56.746Z,97.50
2023-02-26T19:36:23.530Z,97.50
2023-02-26T19:38:50.607Z,98.00
2023-02-26T19:41:21.192Z,97.60
2023-02-26T19:43:48.171Z,97.40
2023-02-26T19:46:15.682Z,97.60
2023-02-26T19:48:42.689Z,98.00
2023-02-26T19:51:09.333Z,98.00
2023-02-26T19:53:36.129Z,97.80
2023-02-26T19:56:03.575Z,97.70
2023-02-26T19:58:31.024Z,97.50
2023-02-26T20:00:58.605Z,97.90
2023-02-26T20:03:25.444Z,98.10
2023-02-26T20:05:52.979Z,98.00
2023-02-26T20:08:20.219Z,98.70
2023-02-26T20:10:49.469Z,98.50
2023-02-26T20:13:17.245Z,98.60
2023-02-26T20:15:44.166Z,98.30
2023-02-26T20:18:10.962Z,97.90
2023-02-26T20:20:37.832Z,97.70
2023-02-26T20:23:04.492Z,97.20
2023-02-26T20:25:31.265Z,98.40
2023-02-26T20:28:05.009Z,98.70
2023-02-26T20:30:32.814Z,98.70
2023-02-26T20:32:59.555Z,98.30
2023-02-26T20:35:26.255Z,99.20
2023-02-26T20:37:52.952Z,99.40
2023-02-26T20:40:19.984Z,99.40
2023-02-26T20:42:46.668Z,99.40
2023-02-26T20:45:13.340Z,99.60
2023-02-26T20:47:42.110Z,99.70
2023-02-26T20:50:09.719Z,99.70
2023-02-26T20:52:36.486Z,99.60
2023-02-26T20:55:03.934Z,99.80
2023-02-26T20:57:32.487Z,99.60
2023-02-26T20:59:59.300Z,99.50
2023-02-26T21:02:26.046Z,99.30
2023-02-26T21:04:52.764Z,98.90
2023-02-26T21:07:22.473Z,99.00
2023-02-26T21:09:50.166Z,99.30
2023-02-26T21:12:16.874Z,99.20
2023-02-26T21:14:43.900Z,99.20
2023-02-26T21:17:10.722Z,99.20
2023-02-26T21:19:37.765Z,99.40
2023-02-26T21:22:04.830Z,99.20
2023-02-26T21:24:31.604Z,99.60
2023-02-26T21:26:58.356Z,99.40
2023-02-26T21:29:25.135Z,99.30
2023-02-26T21:31:53.632Z,99.40
2023-02-26T21:34:33.224Z,99.50
2023-02-26T21:37:01.481Z,98.80
2023-02-26T21:39:28.254Z,98.80
2023-02-26T21:41:54.931Z,98.80
2023-02-26T21:44:21.636Z,99.00
2023-02-26T21:46:48.307Z,99.30
2023-02-26T21:49:14.981Z,99.20
2023-02-26T21:51:41.663Z,99.20
2023-02-26T21:54:08.327Z,99.00
2023-02-26T21:56:34.980Z,99.30
2023-02-26T21:59:01.755Z,99.20
2023-02-26T22:01:28.830Z,99.40
2023-02-26T22:03:55.736Z,99.70
2023-02-26T22:06:22.681Z,99.90
2023-02-26T22:08:49.367Z,99.90
2023-02-26T22:11:16.087Z,99.90
2023-02-26T22:13:42.749Z,99.60
2023-02-26T22:16:09.421Z,99.20
2023-02-26T22:18:36.156Z,98.80
2023-02-26T22:21:03.082Z,99.10
2023-02-26T22:23:29.745Z,99.00
2023-02-26T22:25:56.385Z,99.50
2023-02-26T22:28:23.082Z,98.80
2023-02-26T22:30:50.393Z,98.30
2023-02-26T22:33:17.401Z,99.10
2023-02-26T22:35:44.714Z,99.60
2023-02-26T22:38:11.356Z,99.60
2023-02-26T22:40:38.017Z,99.00
2023-02-26T22:43:04.718Z,93.70
2023-02-26T22:45:31.389Z,95.40
2023-02-26T22:47:58.047Z,97.00
2023-02-26T22:50:24.782Z,97.80
2023-02-26T22:52:51.582Z,98.80
2023-02-26T22:55:18.349Z,98.80
2023-02-26T22:57:44.992Z,97.40
2023-02-26T23:00:18.599Z,97.80
2023-02-26T23:02:46.397Z,98.60
2023-02-26T23:05:13.073Z,97.40
2023-02-26T23:07:40.213Z,98.00
2023-02-26T23:10:08.244Z,98.00
2023-02-26T23:12:35.278Z,97.80
2023-02-26T23:15:01.939Z,98.20
2023-02-26T23:17:28.609Z,98.00
2023-02-26T23:19:55.417Z,98.00
2023-02-26T23:22:22.600Z,96.80
2023-02-26T23:24:49.265Z,97.30
2023-02-26T23:27:16.024Z,98.10
2023-02-26T23:29:43.946Z,97.70
2023-02-26T23:32:11.139Z,97.40
2023-02-26T23:34:38.064Z,97.50
2023-02-26T23:37:04.977Z,97.50
2023-02-26T23:39:31.858Z,97.80
2023-02-26T23:41:58.797Z,97.50
2023-02-26T23:44:25.429Z,98.10
2023-02-26T23:46:52.120Z,98.00
2023-02-26T23:49:18.790Z,98.20
2023-02-26T23:51:45.878Z,98.80
2023-02-26T23:54:13.374Z,98.20
2023-02-26T23:56:40.209Z,97.90
2023-02-26T23:59:07.236Z,98.20
